Time;durP1;ratioP1;P1;durP2;ratioP2;P2;SDS_P1;SDS_P2;PMS_P1;PMS_P2;Temp;Humidity;BMP_temperature;BMP_pressure;BME280_temperature;BME280_humidity;BME280_pressure;Samples;Min_cycle;Max_cycle;Signal;HPM_P1;HPM_P2
2020/12/05 06:31:41;;;;;;;44.93;21.37;;;;;;;-0.43;89.61;100715.42;128447;1092;23533;-60
2020/12/05 06:34:09;;;;;;;47.70;22.40;;;;;;;-0.44;89.59;100711.94;131070;1092;23236;-61
2020/12/05 06:36:38;;;;;;;45.93;22.03;;;;;;;-0.44;89.92;100709.26;131163;1092;23160;-61
2020/12/05 06:39:18;;;;;;;55.27;24.47;;;;;;;-0.43;89.44;100713.58;131088;1092;23165;-61
2020/12/05 06:41:51;;;;;;;46.57;22.40;;;;;;;-0.43;89.81;100716.26;131144;1092;23210;-61
2020/12/05 06:44:23;;;;;;;49.10;24.10;;;;;;;-0.41;90.13;100727.66;131056;1092;24095;-61
2020/12/05 06:47:07;;;;;;;43.67;20.13;;;;;;;-0.44;89.85;100722.64;131174;1092;23232;-61
2020/12/05 06:49:37;;;;;;;54.57;25.77;;;;;;;-0.46;89.85;100738.02;131059;1092;24331;-61
2020/12/05 06:52:26;;;;;;;55.27;23.83;;;;;;;-0.45;90.45;100736.18;131109;1093;23267;-61
2020/12/05 06:55:09;;;;;;;45.17;22.23;;;;;;;-0.44;90.46;100736.03;131081;1092;23197;-61
2020/12/05 06:57:41;;;;;;;47.23;20.57;;;;;;;-0.44;90.32;100735.19;131138;1092;23237;-61
2020/12/05 07:00:14;;;;;;;46.47;20.80;;;;;;;-0.44;90.41;100730.67;130682;1094;23226;-61
2020/12/05 07:02:58;;;;;;;40.63;21.80;;;;;;;-0.45;90.35;100737.02;131097;1092;24514;-61
2020/12/05 07:05:33;;;;;;;42.10;20.40;;;;;;;-0.42;89.25;100741.20;130495;1092;23351;-65
2020/12/05 07:08:02;;;;;;;43.57;21.63;;;;;;;-0.43;90.49;100745.70;131021;1093;23840;-66
2020/12/05 07:10:46;;;;;;;48.00;22.03;;;;;;;-0.42;89.94;100749.23;130692;1093;23137;-66
2020/12/05 07:13:17;;;;;;;45.03;21.30;;;;;;;-0.43;90.36;100747.55;131099;1092;23199;-66
2020/12/05 07:15:44;;;;;;;52.60;24.30;;;;;;;-0.41;89.99;100753.59;131102;1092;24290;-66
2020/12/05 07:18:19;;;;;;;48.07;22.10;;;;;;;-0.38;89.28;100756.80;130733;1092;23167;-65
2020/12/05 07:20:46;;;;;;;53.13;23.23;;;;;;;-0.33;90.12;100758.17;131093;1092;23163;-66
2020/12/05 07:23:13;;;;;;;52.10;22.03;;;;;;;-0.29;89.55;100760.39;131103;1092;23216;-66
2020/12/05 07:25:40;;;;;;;47.47;20.90;;;;;;;-0.25;90.50;100768.92;131046;1092;23159;-66
2020/12/05 07:28:08;;;;;;;42.75;20.50;;;;;;;-0.27;89.37;100760.20;130703;1093;23274;-66
2020/12/05 07:30:35;;;;;;;51.80;23.60;;;;;;;-0.21;90.33;100763.10;131158;1092;23355;-65
2020/12/05 07:33:04;;;;;;;;;;;;;;;-0.18;89.35;100772.66;131112;1092;23221;-65
2020/12/05 07:35:31;;;;;;;47.80;22.30;;;;;;;-0.19;90.24;100774.50;131112;1092;21376;-61
2020/12/05 07:37:59;;;;;;;40.10;20.40;;;;;;;-0.21;90.40;100779.17;131087;1092;23263;-61
2020/12/05 07:40:29;;;;;;;45.77;21.00;;;;;;;-0.22;90.34;100780.17;131101;1093;23158;-61
2020/12/05 07:42:56;;;;;;;44.97;20.90;;;;;;;-0.22;89.25;100787.36;131124;1092;23136;-60
2020/12/05 07:45:23;;;;;;;42.80;20.65;;;;;;;-0.23;89.72;100791.03;131130;1092;23302;-60
2020/12/05 07:47:50;;;;;;;46.73;19.63;;;;;;;-0.23;89.87;100788.36;130685;1092;23292;-61
2020/12/05 07:50:17;;;;;;;40.10;18.80;;;;;;;-0.23;90.29;100789.20;131149;1092;23153;-61
2020/12/05 07:52:44;;;;;;;40.63;20.03;;;;;;;-0.23;89.41;100794.55;131088;1092;23265;-61
2020/12/05 07:55:12;;;;;;;47.13;21.67;;;;;;;-0.25;90.21;100801.90;131125;1093;23287;-61
2020/12/05 07:57:50;;;;;;;43.87;22.20;;;;;;;-0.28;89.83;100802.20;130650;1092;23215;-61
2020/12/05 08:00:18;;;;;;;42.77;21.30;;;;;;;-0.29;90.01;100805.07;131109;1092;23116;-60
2020/12/05 08:03:22;;;;;;;42.63;21.17;;;;;;;-0.31;90.49;100805.22;130685;1092;23170;-60
2020/12/05 08:06:02;;;;;;;45.00;20.87;;;;;;;-0.31;89.85;100807.06;131152;1092;23207;-60
2020/12/05 08:08:29;;;;;;;45.53;21.33;;;;;;;-0.30;89.50;100806.06;130665;1092;24754;-60
2020/12/05 08:11:01;;;;;;;44.15;20.75;;;;;;;-0.27;89.69;100814.60;130745;1092;23192;-60
2020/12/05 08:13:30;;;;;;;37.03;20.87;;;;;;;-0.25;90.06;100809.09;131082;1093;23217;-60
2020/12/05 08:16:07;;;;;;;42.95;20.85;;;;;;;-0.26;89.93;100810.92;131111;1092;23876;-60
2020/12/05 08:18:36;;;;;;;39.20;18.17;;;;;;;-0.25;89.55;100809.09;130674;1093;24683;-60
2020/12/05 08:21:04;;;;;;;47.27;20.60;;;;;;;-0.23;90.70;100813.30;131107;1092;23153;-60
2020/12/05 08:23:32;;;;;;;50.43;26.37;;;;;;;-0.21;90.50;100810.47;131059;1092;23157;-61
2020/12/05 08:26:13;;;;;;;49.13;23.93;;;;;;;-0.18;89.87;100812.84;131082;1092;23150;-60
2020/12/05 08:28:44;;;;;;;45.23;22.87;;;;;;;-0.16;89.59;100818.89;131066;1092;24185;-60
2020/12/05 08:31:12;;;;;;;47.63;22.27;;;;;;;-0.16;90.34;100816.20;130743;1093;23159;-61
2020/12/05 08:33:47;;;;;;;42.33;19.23;;;;;;;-0.16;89.97;100818.89;130604;1094;23273;-60
2020/12/05 08:36:34;;;;;;;45.53;21.30;;;;;;;-0.16;89.37;100821.56;131157;1092;23143;-60
2020/12/05 08:39:12;;;;;;;45.47;20.97;;;;;;;-0.13;89.24;100827.42;131105;1092;24286;-60
2020/12/05 08:41:45;;;;;;;;;;;;;;;-0.11;89.31;100829.95;131161;1092;23157;-65
2020/12/05 08:44:17;;;;;;;41.03;21.90;;;;;;;-0.14;89.61;100833.77;131143;1092;21395;-65
2020/12/05 08:47:02;;;;;;;39.77;20.77;;;;;;;-0.16;89.90;100829.59;131167;1092;23192;-65
2020/12/05 08:49:45;;;;;;;38.95;19.95;;;;;;;-0.17;89.15;100835.95;131091;1092;23145;-65
2020/12/05 08:52:12;;;;;;;42.40;21.80;;;;;;;-0.22;89.37;100833.73;130693;1094;24177;-64
2020/12/05 08:54:51;;;;;;;44.50;21.90;;;;;;;-0.24;89.24;100835.72;131092;1092;23134;-64
2020/12/05 08:57:22;;;;;;;39.83;20.60;;;;;;;-0.21;90.04;100837.25;130708;1093;23496;-65
2020/12/05 08:59:58;;;;;;;43.07;21.27;;;;;;;-0.22;89.18;100833.73;131079;1092;24145;-65
2020/12/05 09:02:34;;;;;;;43.50;22.85;;;;;;;-0.22;89.94;100828.38;130697;1092;23161;-64
2020/12/05 09:05:02;;;;;;;46.73;20.90;;;;;;;-0.22;89.12;100835.56;130654;1092;23172;-65
2020/12/05 09:07:29;;;;;;;40.03;20.47;;;;;;;-0.21;90.11;100829.22;130712;1093;23203;-66
2020/12/05 09:09:59;;;;;;;38.87;20.93;;;;;;;-0.20;90.08;100820.19;131088;1092;23158;-65
2020/12/05 09:12:28;;;;;;;;;;;;;;;-0.20;89.43;100826.38;131137;1092;23151;-65
2020/12/05 09:14:57;;;;;;;38.20;20.65;;;;;;;-0.21;89.30;100810.47;130617;1093;21425;-64
2020/12/05 09:17:30;;;;;;;46.33;22.87;;;;;;;-0.20;89.42;100814.83;126604;1092;23641;-64
2020/12/05 09:20:13;;;;;;;43.00;21.65;;;;;;;-0.21;89.60;100803.28;126702;1093;23530;-63
2020/12/05 09:22:48;;;;;;;40.50;20.50;;;;;;;-0.22;90.18;100806.11;126290;1094;23478;-63
2020/12/05 09:25:32;;;;;;;41.35;21.57;;;;;;;-0.22;89.87;100804.27;131126;1092;23875;-64
2020/12/05 09:28:00;;;;;;;32.30;17.40;;;;;;;-0.20;89.16;100799.60;131120;1092;23195;-65
2020/12/05 09:30:28;;;;;;;41.77;20.67;;;;;;;-0.17;89.60;100806.48;131098;1092;24258;-65
2020/12/05 09:32:55;;;;;;;37.90;19.57;;;;;;;-0.15;90.17;100805.34;130670;1092;23839;-65
2020/12/05 09:35:25;;;;;;;42.23;21.90;;;;;;;-0.14;90.33;100808.83;130717;1094;23145;-65
2020/12/05 09:37:53;;;;;;;42.60;22.90;;;;;;;-0.12;89.90;100809.52;131117;1092;23159;-64
2020/12/05 09:40:20;;;;;;;45.57;24.43;;;;;;;-0.12;90.12;100804.16;131103;1092;23142;-65
2020/12/05 09:42:47;;;;;;;50.87;25.60;;;;;;;-0.08;90.26;100806.37;131068;1093;23171;-66
2020/12/05 09:45:16;;;;;;;42.87;21.70;;;;;;;-0.09;89.91;100796.66;130955;1092;23265;-62
2020/12/05 09:47:44;;;;;;;40.50;21.10;;;;;;;-0.12;90.07;100796.96;131046;1092;23293;-62
2020/12/05 09:50:11;;;;;;;33.23;17.87;;;;;;;-0.12;89.89;100794.28;131092;1092;23143;-61
2020/12/05 09:52:38;;;;;;;43.43;22.27;;;;;;;-0.12;90.29;100793.44;131098;1092;23145;-62
2020/12/05 09:55:08;;;;;;;35.13;18.17;;;;;;;-0.10;90.23;100794.97;131075;1093;23156;-61
2020/12/05 09:57:35;;;;;;;36.50;20.65;;;;;;;-0.08;89.63;100792.14;131048;1093;23294;-63
2020/12/05 10:00:04;;;;;;;36.40;21.15;;;;;;;-0.07;90.32;100789.30;131086;1093;23158;-62
2020/12/05 10:02:32;;;;;;;40.73;22.90;;;;;;;-0.08;89.40;100789.46;130661;1092;24716;-62
2020/12/05 10:05:00;;;;;;;45.07;24.23;;;;;;;-0.09;89.95;100801.17;131092;1094;23222;-63
2020/12/05 10:07:27;;;;;;;45.73;24.23;;;;;;;-0.11;89.59;100806.69;131049;1093;24140;-63
2020/12/05 10:09:54;;;;;;;48.50;23.87;;;;;;;-0.12;89.16;100813.03;131084;1092;23155;-62
2020/12/05 10:12:22;;;;;;;46.20;23.50;;;;;;;-0.08;90.15;100816.25;131047;1093;23211;-62
2020/12/05 10:14:49;;;;;;;41.67;21.90;;;;;;;-0.19;90.15;100797.77;131129;1092;23287;-62
2020/12/05 10:17:16;;;;;;;49.75;23.45;;;;;;;-0.08;89.83;100813.56;127271;1092;23412;-66
2020/12/05 10:19:43;;;;;;;42.50;21.70;;;;;;;-0.09;89.83;100828.80;126775;1092;24936;-65
2020/12/05 10:22:20;;;;;;;49.18;25.37;;;;;;;-0.12;90.34;100815.71;126333;1093;23393;-65
2020/12/05 10:24:49;;;;;;;49.63;25.40;;;;;;;-0.12;89.59;100825.59;126681;1093;23427;-65
2020/12/05 10:27:16;;;;;;;50.43;25.10;;;;;;;-0.14;89.45;100816.86;130849;1092;23288;-66
2020/12/05 10:29:43;;;;;;;56.33;25.77;;;;;;;-0.13;90.25;100810.51;130604;1093;23151;-66
2020/12/05 10:32:10;;;;;;;47.87;24.17;;;;;;;-0.12;90.48;100810.36;131142;1093;24141;-66
2020/12/05 10:34:37;;;;;;;;;;;;;;;-0.11;90.39;100814.72;131105;1093;24157;-66
2020/12/05 10:37:04;;;;;;;41.83;21.57;;;;;;;-0.08;89.55;100814.41;131113;1093;21372;-67
2020/12/05 10:39:32;;;;;;;49.80;21.53;;;;;;;-0.05;90.50;100813.26;131072;1092;23156;-66
2020/12/05 10:42:00;;;;;;;49.90;25.13;;;;;;;-0.02;90.69;100818.31;131139;1092;23919;-66
2020/12/05 10:44:27;;;;;;;47.97;25.87;;;;;;;0.02;90.82;100821.48;131058;1093;23887;-66
2020/12/05 10:46:54;;;;;;;63.87;30.07;;;;;;;0.05;90.15;100824.70;127576;1093;26779;-69
2020/12/05 10:49:23;;;;;;;52.67;27.50;;;;;;;-0.09;90.03;100793.98;126901;1092;24984;-69
2020/12/05 10:51:50;;;;;;;56.23;25.77;;;;;;;0.05;90.62;100832.73;131116;1093;23280;-70
2020/12/05 10:54:17;;;;;;;55.13;25.90;;;;;;;0.03;90.01;100828.53;131137;1092;23180;-70
2020/12/05 10:56:44;;;;;;;58.83;27.93;;;;;;;0.01;89.66;100834.04;131125;1092;23126;-70
2020/12/05 10:59:11;;;;;;;51.43;26.57;;;;;;;0.02;89.78;100832.20;130779;1093;23232;-69
2020/12/05 11:01:41;;;;;;;48.20;24.90;;;;;;;0.02;90.12;100830.37;131145;1092;23244;-69
2020/12/05 11:04:08;;;;;;;50.23;26.43;;;;;;;-0.08;89.52;100809.05;131122;1092;23153;-69
2020/12/05 11:06:35;;;;;;;49.30;25.50;;;;;;;-0.01;89.12;100838.75;131144;1092;23156;-69
2020/12/05 11:09:02;;;;;;;57.67;30.10;;;;;;;-0.02;89.86;100839.74;131116;1092;23310;-69
2020/12/05 11:11:30;;;;;;;73.95;38.75;;;;;;;-0.04;89.38;100845.25;131103;1092;23156;-69
2020/12/05 11:13:57;;;;;;;75.33;39.10;;;;;;;-0.06;89.25;100833.00;131134;1092;24099;-69
2020/12/05 11:16:24;;;;;;;56.47;30.00;;;;;;;-0.05;89.10;100840.05;131060;1092;23214;-69
2020/12/05 11:18:53;;;;;;;56.67;26.47;;;;;;;-0.04;89.16;100831.86;131142;1092;24652;-69
2020/12/05 11:21:22;;;;;;;55.93;27.00;;;;;;;-0.04;88.97;100839.05;131109;1092;23175;-70
2020/12/05 11:23:55;;;;;;;53.00;25.20;;;;;;;0.00;90.14;100843.11;131149;1092;23121;-69
2020/12/05 11:26:29;;;;;;;54.17;26.20;;;;;;;0.00;89.57;100840.42;129170;1091;23670;-70
2020/12/05 11:28:56;;;;;;;55.23;26.27;;;;;;;-0.03;89.13;100844.26;126747;1092;23504;-68
2020/12/05 11:31:23;;;;;;;;;;;;;;;-0.07;89.98;100842.88;126754;1092;23503;-69
2020/12/05 11:33:50;;;;;;;47.75;25.45;;;;;;;-0.12;89.65;100847.02;131163;1092;21956;-69
2020/12/05 11:36:17;;;;;;;50.93;26.10;;;;;;;-0.09;89.78;100852.91;131137;1093;23819;-69
2020/12/05 11:38:45;;;;;;;49.93;25.17;;;;;;;-0.08;90.17;100859.11;131120;1092;23162;-68
2020/12/05 11:41:16;;;;;;;54.15;25.15;;;;;;;-0.09;89.92;100850.23;131103;1092;23206;-69
2020/12/05 11:43:43;;;;;;;59.10;26.90;;;;;;;-0.08;88.73;100856.42;131133;1093;23247;-68
2020/12/05 11:46:13;;;;;;;52.33;27.97;;;;;;;-0.09;89.64;100865.45;131124;1093;23315;-69
2020/12/05 11:48:40;;;;;;;58.93;29.90;;;;;;;-0.13;89.05;100867.59;131124;1092;23242;-68
2020/12/05 11:51:07;;;;;;;;;;;;;;;-0.12;90.05;100865.77;131124;1093;23158;-69
2020/12/05 11:53:34;;;;;;;53.50;26.73;;;;;;;-0.13;89.27;100872.11;131147;1092;21359;-69
2020/12/05 11:56:02;;;;;;;197.07;137.77;;;;;;;-0.16;89.31;100865.27;131178;1092;23155;-69
2020/12/05 11:58:29;;;;;;;72.03;43.60;;;;;;;-0.19;89.47;100868.24;131130;1092;23155;-69
2020/12/05 12:00:59;;;;;;;57.00;28.30;;;;;;;-0.22;88.90;100865.87;131132;1092;24123;-69
2020/12/05 12:03:31;;;;;;;57.53;29.63;;;;;;;-0.23;88.54;100866.86;131118;1092;23158;-69
2020/12/05 12:05:58;;;;;;;67.97;32.00;;;;;;;-0.23;88.89;100871.37;131120;1092;23524;-69
2020/12/05 12:08:27;;;;;;;55.45;31.70;;;;;;;-0.23;89.53;100868.70;131121;1092;23626;-69
2020/12/05 12:10:54;;;;;;;102.47;69.73;;;;;;;-0.24;89.65;100861.66;131183;1092;23139;-69
2020/12/05 12:13:21;;;;;;;;;;;;;;;-0.28;88.62;100865.63;132173;1086;23142;-69
2020/12/05 12:15:55;;;;;;;74.75;36.05;;;;;;;-0.31;88.76;100866.81;131803;1086;21971;-69
2020/12/05 12:18:22;;;;;;;59.23;31.50;;;;;;;-0.33;88.60;100866.12;132120;1086;23138;-69
2020/12/05 12:20:50;;;;;;;90.33;42.00;;;;;;;-0.34;89.64;100874.30;131902;1088;24173;-68
2020/12/05 12:23:17;;;;;;;58.00;29.40;;;;;;;-0.40;88.30;100865.88;132147;1086;24669;-69
2020/12/05 12:25:44;;;;;;;;;;;;;;;-0.42;89.16;100875.06;131088;1086;28015;-69
2020/12/05 12:28:11;;;;;;;66.20;34.63;;;;;;;-0.43;89.31;100876.05;127254;1088;21490;-69
2020/12/05 12:30:39;;;;;;;62.20;31.20;;;;;;;-0.42;88.70;100875.06;127320;1088;23715;-69
2020/12/05 12:33:09;;;;;;;69.43;34.10;;;;;;;-0.45;88.63;100870.87;131820;1086;23158;-69
2020/12/05 12:35:37;;;;;;;81.03;36.17;;;;;;;-0.47;88.96;100867.51;131855;1086;23142;-69
2020/12/05 12:38:04;;;;;;;64.13;32.07;;;;;;;-0.51;88.49;100879.52;131777;1086;23268;-69
2020/12/05 12:40:31;;;;;;;;;;;;;;;-0.56;88.17;100875.59;131899;1086;23186;-69
2020/12/05 12:42:58;;;;;;;59.40;29.83;;;;;;;-0.59;88.39;100883.95;131864;1086;21357;-69
2020/12/05 12:45:31;;;;;;;90.07;61.00;;;;;;;-0.63;88.62;100894.12;131797;1086;23253;-69
2020/12/05 12:50:36;;;;;;;70.95;31.07;;;;;;;-0.67;88.90;100890.05;131746;1086;23253;-69
2020/12/05 12:53:04;;;;;;;56.73;28.17;;;;;;;-0.71;89.31;100886.83;131764;1088;23833;-69
2020/12/05 12:55:33;;;;;;;253.93;77.07;;;;;;;-0.76;89.42;100897.17;130983;1086;23344;-68
2020/12/05 12:58:13;;;;;;;83.37;34.87;;;;;;;-0.79;88.53;100896.62;127261;1088;23391;-68
2020/12/05 13:00:41;;;;;;;111.53;39.83;;;;;;;-0.82;88.80;100903.11;131894;1086;23273;-69
2020/12/05 13:03:08;;;;;;;53.83;24.73;;;;;;;-0.87;89.23;100904.58;131948;1086;23264;-69
2020/12/05 13:05:36;;;;;;;93.83;39.23;;;;;;;-0.90;89.09;100905.71;131609;1088;24594;-69
2020/12/05 13:08:10;;;;;;;94.50;35.37;;;;;;;-0.92;88.50;100918.39;131696;1088;24555;-69
2020/12/05 13:10:36;;;;;;;;;;;;;;;-0.92;88.38;100915.72;131746;1087;23126;-69
2020/12/05 13:13:04;;;;;;;142.00;52.00;;;;;;;-0.93;88.90;100916.70;131875;1086;21344;-69
2020/12/05 13:15:31;;;;;;;182.97;66.97;;;;;;;-0.92;88.72;100922.90;131841;1086;24101;-69
2020/12/05 13:17:58;;;;;;;140.53;53.13;;;;;;;-0.96;88.84;100929.53;131919;1088;24032;-68
2020/12/05 13:20:29;;;;;;;76.13;31.93;;;;;;;-0.99;88.52;100927.15;131909;1086;23261;-68
2020/12/05 13:22:56;;;;;;;;;;;;;;;-0.98;88.86;100926.16;131976;1086;24178;-68
2020/12/05 13:25:23;;;;;;;78.03;31.43;;;;;;;-1.01;89.02;100923.80;131765;1088;21365;-69
2020/12/05 13:27:50;;;;;;;67.50;26.77;;;;;;;-1.05;88.84;100925.93;131758;1086;23210;-70
2020/12/05 13:30:22;;;;;;;67.27;28.53;;;;;;;-1.09;89.28;100912.00;131652;1087;23107;-68
2020/12/05 13:32:49;;;;;;;56.53;25.57;;;;;;;-1.13;88.80;100910.61;131779;1088;23183;-69
2020/12/05 13:35:16;;;;;;;;;;;;;;;-1.16;89.06;100918.11;131756;1086;24085;-64
2020/12/05 13:37:45;;;;;;;49.87;22.13;;;;;;;-1.18;88.51;100925.44;131692;1088;21986;-65
2020/12/05 13:40:12;;;;;;;;;;;;;;;-1.42;88.18;100894.70;131888;1086;23874;-65
2020/12/05 13:42:39;;;;;;;63.73;26.93;;;;;;;-1.25;88.55;100930.52;131947;1086;21357;-66
2020/12/05 13:45:06;;;;;;;69.43;28.63;;;;;;;-1.26;88.85;100925.31;131927;1086;23246;-66
2020/12/05 13:47:33;;;;;;;94.40;34.80;;;;;;;-1.24;88.73;100932.20;131661;1088;23164;-66
2020/12/05 13:50:01;;;;;;;113.07;39.13;;;;;;;-1.23;89.42;100928.55;131813;1088;23190;-66
2020/12/05 13:52:28;;;;;;;74.10;33.77;;;;;;;-1.21;89.00;100933.74;131819;1087;23112;-66
2020/12/05 13:54:55;;;;;;;98.33;48.93;;;;;;;-1.21;88.97;100926.56;131876;1086;23135;-66
2020/12/05 13:57:22;;;;;;;238.13;92.47;;;;;;;-1.20;89.18;100927.41;131747;1086;23139;-65
2020/12/05 13:59:49;;;;;;;122.23;41.97;;;;;;;-1.20;89.12;100924.73;131784;1088;23159;-66
2020/12/05 14:02:16;;;;;;;91.60;34.03;;;;;;;-1.20;88.70;100930.08;131816;1086;23220;-66
2020/12/05 14:04:43;;;;;;;63.83;26.97;;;;;;;-1.18;88.53;100926.28;131857;1088;23240;-66
2020/12/05 14:07:12;;;;;;;76.23;33.60;;;;;;;-1.17;88.40;100927.12;131777;1086;23214;-66
2020/12/05 14:09:43;;;;;;;69.43;30.93;;;;;;;-1.22;88.62;100932.91;131872;1086;23180;-66
2020/12/05 14:12:11;;;;;;;61.50;27.93;;;;;;;-1.22;89.04;100938.25;131779;1086;23192;-66
2020/12/05 14:14:38;;;;;;;111.07;38.97;;;;;;;-1.24;88.06;100937.55;131762;1088;23207;-65
2020/12/05 14:17:05;;;;;;;87.53;31.70;;;;;;;-1.24;88.99;100934.88;131752;1086;24527;-65
2020/12/05 14:19:32;;;;;;;176.40;49.23;;;;;;;-1.23;89.09;100933.89;131800;1087;23130;-66
2020/12/05 14:22:06;;;;;;;81.03;32.40;;;;;;;-1.24;88.63;100937.55;131755;1088;23215;-66
2020/12/05 14:24:34;;;;;;;70.33;27.33;;;;;;;-1.22;88.49;100948.10;131691;1088;23254;-66
2020/12/05 14:27:01;;;;;;;69.47;32.73;;;;;;;-1.24;88.46;100944.73;131831;1087;23148;-66
2020/12/05 14:29:28;;;;;;;75.17;29.00;;;;;;;-1.24;89.00;100945.57;131828;1086;23229;-66
2020/12/05 14:31:56;;;;;;;97.73;33.50;;;;;;;-1.25;88.38;100946.56;131904;1086;23152;-66
2020/12/05 14:34:24;;;;;;;77.60;29.80;;;;;;;-1.28;87.90;100940.66;131798;1086;23965;-67
2020/12/05 14:36:52;;;;;;;42.47;21.50;;;;;;;-1.31;88.81;100939.14;131765;1088;23155;-67
2020/12/05 14:39:20;;;;;;;67.27;27.83;;;;;;;-1.33;88.31;100948.30;131720;1086;23156;-65
2020/12/05 14:41:47;;;;;;;63.90;27.67;;;;;;;-1.34;87.90;100943.93;131674;1088;23621;-65
2020/12/05 14:44:16;;;;;;;42.63;19.57;;;;;;;-1.33;88.92;100958.98;131641;1088;23781;-66
2020/12/05 14:46:43;;;;;;;55.97;22.43;;;;;;;-1.32;87.86;100958.00;131685;1088;23155;-65
2020/12/05 14:49:13;;;;;;;61.13;24.47;;;;;;;-1.29;88.60;100957.69;131815;1086;23169;-66
2020/12/05 14:51:44;;;;;;;96.00;34.67;;;;;;;-1.25;87.96;100967.95;131796;1088;24124;-67
2020/12/05 14:54:12;;;;;;;56.13;25.33;;;;;;;-1.23;88.92;100954.44;131739;1088;24143;-66
2020/12/05 14:56:42;;;;;;;45.00;21.37;;;;;;;-1.18;87.89;100965.55;131822;1086;23205;-66
2020/12/05 14:59:13;;;;;;;66.80;33.10;;;;;;;-1.18;88.27;100969.06;131680;1088;23150;-66
2020/12/05 15:01:41;;;;;;;118.30;36.50;;;;;;;-1.19;88.21;100966.53;131719;1088;23265;-66
2020/12/05 15:04:09;;;;;;;82.37;33.27;;;;;;;-1.17;88.66;100967.23;131784;1088;24199;-66
2020/12/05 15:06:37;;;;;;;82.70;30.00;;;;;;;-1.15;88.34;100970.58;128964;1086;23328;-70
2020/12/05 15:09:07;;;;;;;126.67;39.17;;;;;;;-1.17;87.92;100973.42;131793;1086;24105;-70
2020/12/05 15:11:34;;;;;;;117.70;41.37;;;;;;;-1.16;87.84;100985.81;131880;1088;23627;-70
2020/12/05 15:14:03;;;;;;;79.27;32.20;;;;;;;-1.18;87.61;100977.09;131706;1086;23214;-70
2020/12/05 15:16:30;;;;;;;95.07;32.60;;;;;;;-1.19;87.83;100977.23;131729;1088;23251;-71
2020/12/05 15:18:57;;;;;;;109.80;31.50;;;;;;;-1.21;87.45;100972.02;131756;1088;24549;-70
2020/12/05 15:21:24;;;;;;;79.67;30.57;;;;;;;-1.18;87.77;100976.23;131704;1087;24168;-70
2020/12/05 15:23:52;;;;;;;91.80;37.77;;;;;;;-1.17;87.69;100976.09;131786;1088;23154;-69
2020/12/05 15:26:20;;;;;;;101.20;34.47;;;;;;;-1.16;88.13;100980.46;131736;1086;23162;-69
2020/12/05 15:28:47;;;;;;;48.30;23.63;;;;;;;-1.17;88.21;100976.09;131737;1086;23219;-69
2020/12/05 15:31:14;;;;;;;51.03;24.13;;;;;;;-1.16;87.72;100976.94;131745;1088;23276;-69
2020/12/05 15:33:41;;;;;;;64.03;25.80;;;;;;;-1.16;87.51;100987.64;131851;1086;24150;-69
2020/12/05 15:36:13;;;;;;;52.20;19.27;;;;;;;-1.18;87.78;100982.44;129749;1088;23359;-68
2020/12/05 15:38:41;;;;;;;56.27;20.13;;;;;;;-1.20;88.05;100980.89;127100;1088;23497;-69
2020/12/05 15:41:09;;;;;;;53.60;23.27;;;;;;;-1.22;88.09;100980.19;131690;1088;23272;-69
2020/12/05 15:43:36;;;;;;;47.80;22.45;;;;;;;-1.19;88.48;100987.92;131765;1086;23183;-69
2020/12/05 15:46:04;;;;;;;59.83;25.43;;;;;;;-1.17;87.84;100999.32;131683;1086;24677;-70
2020/12/05 15:48:31;;;;;;;59.33;25.43;;;;;;;-1.15;88.04;100992.81;131749;1086;23171;-70
2020/12/05 15:50:58;;;;;;;82.63;30.10;;;;;;;-1.13;87.98;100990.00;131766;1086;23188;-70
2020/12/05 15:53:25;;;;;;;39.30;18.57;;;;;;;-1.11;87.73;100991.54;131632;1088;23239;-70
2020/12/05 15:55:52;;;;;;;;;;;;;;;-1.13;87.66;100981.97;131800;1087;23200;-68
2020/12/05 15:58:21;;;;;;;65.47;24.83;;;;;;;-1.14;88.19;100980.28;131662;1088;21811;-70
2020/12/05 16:00:49;;;;;;;86.87;27.30;;;;;;;-1.12;88.36;100995.20;131667;1088;23194;-70
2020/12/05 16:03:16;;;;;;;67.33;25.10;;;;;;;-1.10;88.00;100995.05;131750;1086;23179;-70
2020/12/05 16:05:48;;;;;;;106.47;54.73;;;;;;;-1.10;88.56;100989.70;131645;1088;23145;-70
2020/12/05 16:08:15;;;;;;;52.43;23.67;;;;;;;-1.11;88.05;100983.52;131732;1088;23265;-70
2020/12/05 16:10:42;;;;;;;53.47;21.77;;;;;;;-1.09;88.41;100981.55;131752;1087;23182;-69
2020/12/05 16:13:10;;;;;;;85.17;29.07;;;;;;;-1.07;87.86;100982.23;131688;1086;24655;-70
2020/12/05 16:15:40;;;;;;;37.73;18.03;;;;;;;-1.05;88.67;100982.09;131752;1087;23143;-71
2020/12/05 16:18:07;;;;;;;48.53;20.23;;;;;;;-1.02;88.02;100983.64;131737;1086;24971;-71
2020/12/05 16:20:33;;;;;;;;;;;;;;;-1.04;87.99;100981.11;131781;1086;23152;-70
2020/12/05 16:23:02;;;;;;;68.70;25.93;;;;;;;-1.02;87.90;100983.64;131605;1088;21367;-70
2020/12/05 16:25:29;;;;;;;;;;;;;;;-1.02;88.27;100968.44;131832;1086;23162;-72
2020/12/05 16:28:00;;;;;;;88.00;33.83;;;;;;;-0.98;88.86;100979.66;131638;1088;22314;-70
2020/12/05 16:30:27;;;;;;;;;;;;;;;-0.98;88.38;100985.01;131781;1088;24124;-70
2020/12/05 16:32:55;;;;;;;60.15;20.97;;;;;;;-0.97;88.04;100982.19;131756;1086;21372;-69
2020/12/05 16:35:25;;;;;;;43.53;17.60;;;;;;;-0.95;88.64;100974.02;131661;1087;23135;-69
2020/12/05 16:37:52;;;;;;;63.33;18.10;;;;;;;-0.95;88.18;100969.52;131715;1086;23188;-69
2020/12/05 16:40:20;;;;;;;74.10;22.37;;;;;;;-0.92;88.61;100973.73;131771;1088;23135;-69
2020/12/05 16:42:47;;;;;;;55.40;23.10;;;;;;;-0.91;88.15;100975.41;131782;1086;23165;-69
2020/12/05 16:45:15;;;;;;;54.73;22.30;;;;;;;-0.90;88.85;100988.64;131763;1086;24105;-69
2020/12/05 16:47:45;;;;;;;55.57;21.83;;;;;;;-0.88;88.76;100985.83;131729;1088;23171;-69
2020/12/05 16:50:18;;;;;;;49.50;19.93;;;;;;;-0.86;88.07;100978.47;131707;1088;23231;-70
2020/12/05 16:52:48;;;;;;;40.77;17.07;;;;;;;-0.85;88.82;100978.32;131688;1087;24192;-65
2020/12/05 16:55:15;;;;;;;60.67;23.97;;;;;;;-0.84;88.91;100974.66;131805;1087;23193;-69
2020/12/05 16:57:42;;;;;;;48.80;20.10;;;;;;;-0.81;88.30;100978.88;131698;1086;23252;-68
2020/12/05 17:00:10;;;;;;;45.17;17.13;;;;;;;-0.78;89.32;100981.26;131710;1088;24305;-68
2020/12/05 17:05:22;;;;;;;47.97;21.00;;;;;;;-0.72;88.48;100986.84;125321;1094;23511;-67
2020/12/05 17:07:50;;;;;;;39.40;18.23;;;;;;;-0.71;88.31;100983.17;125301;1093;23353;-66
2020/12/05 17:10:20;;;;;;;45.60;17.67;;;;;;;-0.72;88.28;100970.78;125242;1093;25844;-66
2020/12/05 17:12:49;;;;;;;64.93;25.87;;;;;;;-0.69;88.46;100976.83;125283;1093;26193;-69
2020/12/05 17:15:17;;;;;;;50.40;19.10;;;;;;;-0.66;89.03;100979.22;129518;1093;23216;-68
2020/12/05 17:17:44;;;;;;;42.53;16.67;;;;;;;-0.65;89.20;100991.61;129835;1096;24190;-69
2020/12/05 17:20:13;;;;;;;41.50;17.07;;;;;;;-0.63;88.34;100997.66;129755;1093;23182;-69
2020/12/05 17:22:40;;;;;;;54.20;23.80;;;;;;;-0.64;89.01;100991.46;129896;1100;23211;-70
2020/12/05 17:25:14;;;;;;;36.30;15.47;;;;;;;-0.62;88.37;100999.34;129741;1093;23961;-69
2020/12/05 17:27:41;;;;;;;43.80;20.23;;;;;;;-0.60;88.91;100997.36;129895;1100;23791;-69
2020/12/05 17:30:10;;;;;;;37.37;19.87;;;;;;;-0.61;88.50;101001.88;129732;1095;23185;-70
2020/12/05 17:32:40;;;;;;;39.57;18.03;;;;;;;-0.61;88.77;100998.35;129882;1100;23227;-69
2020/12/05 17:35:09;;;;;;;38.43;16.53;;;;;;;-0.57;88.32;101002.39;129762;1093;23133;-69
2020/12/05 17:37:38;;;;;;;83.63;37.20;;;;;;;-0.54;89.14;101010.13;129960;1093;23173;-69
2020/12/05 17:40:08;;;;;;;115.73;45.80;;;;;;;-0.52;88.21;101003.64;129743;1093;23273;-69
2020/12/05 17:42:36;;;;;;;105.87;37.27;;;;;;;-0.50;88.29;101001.66;129920;1101;23219;-68
2020/12/05 17:45:07;;;;;;;89.03;32.90;;;;;;;-0.47;88.34;101006.72;129806;1093;23302;-68
2020/12/05 17:47:38;;;;;;;51.80;22.40;;;;;;;-0.46;88.40;101016.44;129901;1093;23191;-68
2020/12/05 17:50:05;;;;;;;51.35;21.30;;;;;;;-0.46;88.58;101021.80;129741;1093;24164;-68
2020/12/05 17:52:34;;;;;;;46.53;19.60;;;;;;;-0.46;88.33;101024.47;129859;1093;23172;-68